Terminal Aerodrome Forecast
Issued by NWS Billings, MT

Home | Current Version | Previous Version | Graphics & Text | Print | Product List | Glossary On
Versions: 1 2 3 4 5 6 7 8 9 10 11 12 13 14 15 16
000
FTUS45 KBYZ 220813 AAA
TAFMLS
TAF AMD
KMLS 220813Z 2208/2306 02017G26KT P6SM VCSH BKN100
     FM221500 31020G29KT P6SM FEW080 SCT100
     FM230300 33014KT P6SM FEW050=

USA.gov is the U.S. government's official web portal to all federal, state and local government web resources and services.